createdAt,value
2023-09-17T00:02:08.996Z,13.13
2023-09-17T00:07:08.110Z,15.33
2023-09-17T00:12:08.026Z,12.48
2023-09-17T00:17:08.498Z,13.32
2023-09-17T00:22:10.382Z,13.23
2023-09-17T00:27:09.627Z,13.35
2023-09-17T00:32:11.318Z,14.95
2023-09-17T00:37:12.680Z,11.63
2023-09-17T00:42:12.995Z,13.13
2023-09-17T00:47:14.683Z,12.43
2023-09-17T00:52:18.529Z,12.32
2023-09-17T00:57:18.978Z,13.10
2023-09-17T01:02:25.450Z,12.85
2023-09-17T01:07:24.877Z,11.18
2023-09-17T01:12:23.965Z,13.45
2023-09-17T01:17:26.028Z,12.68
2023-09-17T01:22:30.687Z,13.00
2023-09-17T01:27:31.315Z,11.07
2023-09-17T01:32:30.362Z,13.93
2023-09-17T01:37:32.738Z,11.95
2023-09-17T01:42:34.209Z,9.55
2023-09-17T01:47:34.207Z,15.07
2023-09-17T01:52:35.352Z,13.75
2023-09-17T01:57:35.699Z,10.70
2023-09-17T02:02:34.685Z,14.82
2023-09-17T02:07:33.742Z,11.48
2023-09-17T02:12:32.907Z,10.75
2023-09-17T02:17:33.275Z,11.35
2023-09-17T02:22:32.262Z,11.10
2023-09-17T02:27:31.287Z,10.50
2023-09-17T02:32:30.377Z,9.43
2023-09-17T02:37:30.666Z,10.75
2023-09-17T02:42:29.732Z,9.90
2023-09-17T02:47:29.854Z,11.57
2023-09-17T02:52:30.466Z,11.90
2023-09-17T02:57:29.709Z,11.68
2023-09-17T03:02:29.481Z,9.68
2023-09-17T03:07:28.670Z,7.65
2023-09-17T03:12:29.057Z,11.43
2023-09-17T03:17:28.735Z,13.45
2023-09-17T03:22:27.817Z,11.52
2023-09-17T03:27:28.625Z,12.15
2023-09-17T03:32:27.820Z,13.07
2023-09-17T03:37:27.251Z,12.73
2023-09-17T03:42:26.556Z,12.70
2023-09-17T03:47:26.987Z,12.80
2023-09-17T03:52:26.748Z,12.27
2023-09-17T03:57:25.854Z,12.45
2023-09-17T04:02:27.089Z,10.00
2023-09-17T04:07:26.194Z,14.20
2023-09-17T04:12:25.120Z,11.68
2023-09-17T04:17:24.345Z,11.10
2023-09-17T04:22:25.161Z,11.23
2023-09-17T04:27:24.030Z,10.88
2023-09-17T04:32:23.052Z,11.68
2023-09-17T04:37:22.678Z,13.55
2023-09-17T04:42:23.327Z,10.80
2023-09-17T04:47:22.493Z,11.52
2023-09-17T04:52:21.557Z,15.32
2023-09-17T04:57:20.627Z,12.70
2023-09-17T05:02:23.291Z,12.35
2023-09-17T05:07:23.221Z,10.60
2023-09-17T05:12:22.594Z,14.05
2023-09-17T05:17:23.327Z,15.73
2023-09-17T05:22:22.496Z,14.23
2023-09-17T05:27:21.715Z,12.93
2023-09-17T05:32:22.499Z,10.23
2023-09-17T05:37:21.731Z,13.57
2023-09-17T05:42:21.794Z,11.90
2023-09-17T05:47:23.421Z,13.07
2023-09-17T05:52:22.579Z,13.23
2023-09-17T05:57:21.608Z,10.23
2023-09-17T06:02:20.770Z,12.68
2023-09-17T06:07:21.354Z,12.07
2023-09-17T06:12:21.023Z,10.27
2023-09-17T06:17:20.301Z,9.98
2023-09-17T06:22:21.047Z,10.85
2023-09-17T06:27:20.609Z,9.27
2023-09-17T06:32:20.031Z,13.43
2023-09-17T06:37:20.816Z,10.13
2023-09-17T06:42:21.739Z,11.60
2023-09-17T06:47:22.965Z,12.80
2023-09-17T06:52:26.740Z,11.20
2023-09-17T06:57:26.222Z,10.75
2023-09-17T07:02:25.691Z,11.02
2023-09-17T07:07:26.022Z,10.00
2023-09-17T07:12:25.124Z,10.93
2023-09-17T07:17:24.203Z,11.25
2023-09-17T07:22:23.415Z,15.40
2023-09-17T07:27:23.743Z,13.23
2023-09-17T07:32:22.748Z,15.35
2023-09-17T07:37:25.755Z,11.18
2023-09-17T07:42:31.345Z,12.13
2023-09-17T07:47:30.248Z,10.82
2023-09-17T07:52:29.325Z,10.57
2023-09-17T07:57:28.360Z,11.75
2023-09-17T08:02:28.789Z,10.43
2023-09-17T08:07:28.038Z,11.27
2023-09-17T08:12:27.030Z,11.07
2023-09-17T08:17:26.601Z,10.77
2023-09-17T08:22:35.455Z,12.48
2023-09-17T08:27:35.031Z,11.20
2023-09-17T08:32:34.847Z,10.13
2023-09-17T08:37:40.880Z,12.65
2023-09-17T08:42:41.420Z,12.00
2023-09-17T08:47:40.824Z,12.73
2023-09-17T08:52:45.384Z,13.35
2023-09-17T08:57:48.957Z,9.85
2023-09-17T09:02:52.200Z,13.85
2023-09-17T09:07:54.414Z,8.85
2023-09-17T09:13:06.240Z,12.48
2023-09-17T09:18:05.860Z,8.43
2023-09-17T09:23:07.247Z,12.15
2023-09-17T09:28:07.174Z,7.22
2023-09-17T09:33:06.726Z,8.50
2023-09-17T09:38:07.533Z,9.37
2023-09-17T09:43:06.912Z,10.98
2023-09-17T09:48:16.229Z,9.70
2023-09-17T09:53:16.852Z,7.82
2023-09-17T09:58:16.827Z,7.88
2023-09-17T10:03:18.723Z,15.25
2023-09-17T10:08:20.604Z,9.27
2023-09-17T10:13:19.773Z,9.00
2023-09-17T10:18:21.080Z,9.02
2023-09-17T10:23:23.109Z,10.15
2023-09-17T10:28:29.464Z,16.98
2023-09-17T10:33:29.925Z,8.43
2023-09-17T10:38:33.400Z,8.57
2023-09-17T10:43:33.888Z,7.93
2023-09-17T10:48:34.616Z,9.85
2023-09-17T10:53:34.989Z,8.15
2023-09-17T11:03:45.470Z,7.65
2023-09-17T11:08:47.865Z,7.80
2023-09-17T11:13:48.236Z,7.38
2023-09-17T11:19:06.846Z,9.43
2023-09-17T11:24:12.230Z,7.68
2023-09-17T11:29:13.098Z,6.15
2023-09-17T11:34:12.280Z,9.88
2023-09-17T11:39:17.274Z,5.88
2023-09-17T11:44:17.362Z,15.23
2023-09-17T11:49:17.504Z,6.38
2023-09-17T11:54:20.739Z,8.77
2023-09-17T11:59:20.308Z,8.13
2023-09-17T12:04:19.889Z,6.20
2023-09-17T12:09:50.179Z,4.32
2023-09-17T12:14:58.123Z,7.03
2023-09-17T12:20:42.235Z,6.40
2023-09-17T12:25:46.735Z,6.85
2023-09-17T12:30:45.993Z,7.20
2023-09-17T12:35:45.024Z,7.45
2023-09-17T12:40:45.704Z,6.78
2023-09-17T12:45:45.403Z,6.70
2023-09-17T12:50:45.546Z,5.60
2023-09-17T12:55:46.294Z,5.32
2023-09-17T13:00:45.530Z,11.85
2023-09-17T13:05:47.708Z,6.95
2023-09-17T13:10:48.432Z,9.00
2023-09-17T13:15:48.106Z,5.85
2023-09-17T13:20:48.120Z,8.27
2023-09-17T13:25:53.316Z,7.70
2023-09-17T13:30:52.681Z,5.65
2023-09-17T13:35:53.191Z,4.25
2023-09-17T13:40:54.839Z,10.32
2023-09-17T13:45:55.020Z,6.80
2023-09-17T13:50:54.686Z,4.05
2023-09-17T13:55:56.140Z,5.93
2023-09-17T14:00:55.053Z,7.85
2023-09-17T14:05:53.937Z,7.28
2023-09-17T14:10:54.308Z,4.50
2023-09-17T14:15:55.378Z,9.25
2023-09-17T14:20:54.254Z,6.20
2023-09-17T14:25:54.621Z,8.00
2023-09-17T14:30:55.329Z,6.50
2023-09-17T14:35:54.916Z,6.35
2023-09-17T14:40:55.599Z,4.45
2023-09-17T14:45:55.156Z,6.13
2023-09-17T14:50:54.769Z,5.03
2023-09-17T14:55:55.563Z,9.90
2023-09-17T15:00:54.599Z,12.38
2023-09-17T15:05:53.789Z,16.60
2023-09-17T15:10:53.378Z,16.20
2023-09-17T15:20:52.622Z,12.15
2023-09-17T15:25:51.925Z,12.80
2023-09-17T15:30:51.618Z,11.37
2023-09-17T15:35:53.869Z,12.70
2023-09-17T15:40:53.449Z,7.20
2023-09-17T15:45:52.975Z,9.00
2023-09-17T15:50:53.451Z,7.33
2023-09-17T16:05:54.441Z,6.47
2023-09-17T16:10:54.181Z,14.85
2023-09-17T16:15:53.818Z,10.87
2023-09-17T16:20:54.409Z,9.65
2023-09-17T16:25:53.445Z,8.05
2023-09-17T16:30:52.559Z,12.32
2023-09-17T16:35:51.556Z,7.85
2023-09-17T16:40:51.947Z,7.40
2023-09-17T16:45:52.004Z,6.15
2023-09-17T16:50:50.887Z,6.82
2023-09-17T16:55:51.692Z,7.85
2023-09-17T17:00:51.851Z,5.18
2023-09-17T17:05:54.320Z,7.82
2023-09-17T17:10:55.413Z,5.72
2023-09-17T17:15:56.861Z,6.65
2023-09-17T17:20:56.503Z,4.63
2023-09-17T17:25:57.337Z,6.18
2023-09-17T17:31:07.181Z,5.85
2023-09-17T17:36:07.872Z,4.35
2023-09-17T17:41:09.889Z,4.80
2023-09-17T17:46:09.295Z,3.97
2023-09-17T17:51:08.662Z,5.65
2023-09-17T17:56:11.357Z,4.35
2023-09-17T18:01:10.811Z,3.38
2023-09-17T18:06:10.046Z,5.53
2023-09-17T18:11:10.574Z,6.45
2023-09-17T18:16:10.929Z,5.03
2023-09-17T18:21:10.001Z,4.80
2023-09-17T18:26:10.437Z,6.82
2023-09-17T18:31:14.454Z,4.20
2023-09-17T18:36:14.043Z,10.45
2023-09-17T18:41:16.373Z,7.32
2023-09-17T18:46:19.440Z,6.40
2023-09-17T18:51:21.524Z,4.93
2023-09-17T18:56:22.512Z,4.88
2023-09-17T19:01:21.888Z,6.07
2023-09-17T19:06:22.581Z,5.45
2023-09-17T19:11:23.378Z,5.60
2023-09-17T19:16:22.716Z,5.33
2023-09-17T19:21:21.837Z,4.15
2023-09-17T19:26:23.143Z,11.13
2023-09-17T19:31:22.347Z,4.25
2023-09-17T19:36:21.900Z,5.47
2023-09-17T19:41:22.311Z,6.20
2023-09-17T19:46:21.889Z,5.57
2023-09-17T19:51:21.343Z,8.57
2023-09-17T19:56:22.748Z,8.35
2023-09-17T20:01:22.021Z,6.22
2023-09-17T20:06:22.609Z,5.45
2023-09-17T20:11:26.518Z,9.25
2023-09-17T20:16:26.139Z,4.65
2023-09-17T20:21:25.309Z,6.28
2023-09-17T20:32:01.950Z,7.22
2023-09-17T20:37:02.636Z,4.90
2023-09-17T20:42:04.473Z,6.15
2023-09-17T20:52:04.928Z,5.13
2023-09-17T20:57:06.093Z,5.55
2023-09-17T21:02:05.610Z,5.80
2023-09-17T21:07:05.474Z,7.82
2023-09-17T21:12:06.443Z,4.65
2023-09-17T21:17:06.301Z,5.90
2023-09-17T21:22:08.042Z,5.15
2023-09-17T21:27:08.846Z,5.47
2023-09-17T21:32:08.177Z,6.55
2023-09-17T21:37:07.277Z,7.18
2023-09-17T21:42:06.904Z,9.65
2023-09-17T21:47:07.491Z,5.10
2023-09-17T21:52:06.617Z,7.72
2023-09-17T21:57:17.392Z,7.07
2023-09-17T22:02:18.346Z,6.40
2023-09-17T22:07:18.738Z,5.23
2023-09-17T22:12:17.914Z,7.65
2023-09-17T22:17:20.184Z,4.28
2023-09-17T22:22:19.701Z,6.82
2023-09-17T22:27:18.908Z,6.32
2023-09-17T22:32:19.312Z,6.22
2023-09-17T22:37:18.712Z,8.35
2023-09-17T22:42:17.616Z,9.10
2023-09-17T22:47:17.690Z,5.13
2023-09-17T22:52:18.120Z,5.22
2023-09-17T22:57:17.398Z,5.95
2023-09-17T23:02:16.487Z,6.78
2023-09-17T23:07:15.732Z,6.90
2023-09-17T23:12:16.426Z,8.60
2023-09-17T23:17:18.134Z,4.97
2023-09-17T23:22:17.204Z,6.13
2023-09-17T23:27:17.639Z,9.05
2023-09-17T23:32:16.605Z,13.32
2023-09-17T23:37:16.528Z,5.82
2023-09-17T23:42:15.494Z,7.60
2023-09-17T23:47:15.902Z,7.68
2023-09-17T23:52:15.597Z,11.73
2023-09-17T23:57:15.357Z,8.27
